Time;durP1;ratioP1;P1;durP2;ratioP2;P2;SDS_P1;SDS_P2;PMS_P1;PMS_P2;Temp;Humidity;BMP_temperature;BMP_pressure;BME280_temperature;BME280_humidity;BME280_pressure;Samples;Min_cycle;Max_cycle;Signal;HPM_P1;HPM_P2
2022/04/09 00:01:58;;;;;;;7.07;3.93;;;1.40;99.90;0.40;97856;;;;584618;242;24067;-82
2022/04/09 00:04:27;;;;;;;5.57;3.60;;;1.40;99.90;0.40;97852;;;;584593;242;24223;-82
2022/04/09 00:06:55;;;;;;;3.80;3.47;;;1.40;99.90;0.40;97853;;;;593597;242;24059;-87
2022/04/09 00:09:23;;;;;;;5.10;3.90;;;1.40;99.90;0.40;97856;;;;588673;240;24036;-81
2022/04/09 00:11:50;;;;;;;3.80;3.50;;;1.40;99.90;0.40;97860;;;;588455;240;24027;-88
2022/04/09 00:14:18;;;;;;;4.07;3.50;;;1.40;99.90;0.40;97859;;;;584588;242;24065;-87
2022/04/09 00:16:50;;;;;;;7.60;4.12;;;1.40;99.90;0.40;97854;;;;578069;246;35178;-88
2022/04/09 00:19:14;;;;;;;4.00;3.47;;;1.40;99.90;0.40;97849;;;;582337;242;24091;-84
2022/04/09 00:21:42;;;;;;;2.33;2.13;;;1.40;99.90;0.40;97850;;;;582935;246;25089;-84
2022/04/09 00:24:11;;;;;;;2.90;2.50;;;1.40;99.90;0.40;97860;;;;588535;242;24069;-84
2022/04/09 00:26:39;;;;;;;3.47;2.20;;;1.40;99.90;0.40;97847;;;;582920;246;24172;-83
2022/04/09 00:29:11;;;;;;;2.77;2.53;;;1.50;99.90;0.40;97852;;;;590051;241;24086;-84
2022/04/09 00:31:35;;;;;;;5.70;2.23;;;1.40;99.90;0.40;97852;;;;585495;241;24065;-83
2022/04/09 00:34:05;;;;;;;2.67;2.43;;;1.40;99.90;0.40;97861;;;;583704;246;25098;-82
2022/04/09 00:36:32;;;;;;;2.50;2.30;;;1.40;99.90;0.40;97854;;;;589282;242;24084;-82
2022/04/09 00:39:00;;;;;;;3.27;3.00;;;1.40;99.90;0.30;97860;;;;583517;246;24045;-83
2022/04/09 00:41:28;;;;;;;4.40;3.70;;;1.40;99.90;0.30;97866;;;;589061;242;24092;-85
2022/04/09 00:43:55;;;;;;;4.50;3.50;;;1.40;99.90;0.30;97865;;;;578756;246;24226;-84
2022/04/09 00:46:24;;;;;;;3.93;3.63;;;1.30;99.90;0.30;97861;;;;583288;246;24088;-84
2022/04/09 00:48:52;;;;;;;4.30;3.97;;;1.30;99.90;0.30;97871;;;;588790;242;24080;-84
2022/04/09 00:51:20;;;;;;;6.17;3.90;;;1.30;99.90;0.20;97872;;;;577742;246;24103;-83
2022/04/09 00:53:48;;;;;;;6.17;4.03;;;1.20;99.90;0.20;97875;;;;573499;246;24107;-82
2022/04/09 00:56:16;;;;;;;4.03;3.73;;;1.20;99.90;0.10;97865;;;;587389;241;24073;-80
2022/04/09 00:58:57;;;;;;;4.00;3.60;;;1.10;99.90;0.10;97865;;;;582806;243;24098;-81
2022/04/09 01:01:25;;;;;;;4.27;3.87;;;1.10;99.90;0.00;97869;;;;581825;242;24156;-82
2022/04/09 01:03:53;;;;;;;4.47;4.07;;;1.00;99.90;0.00;97860;;;;582338;243;24089;-82
2022/04/09 01:06:21;;;;;;;5.93;4.63;;;1.00;99.90;-0.10;97868;;;;577083;247;24204;-85
2022/04/09 01:08:50;;;;;;;4.90;4.40;;;0.90;99.90;-0.10;97863;;;;573221;247;24199;-82
2022/04/09 01:11:18;;;;;;;4.73;4.23;;;0.90;99.90;-0.10;97873;;;;582634;246;24107;-81
2022/04/09 01:13:45;;;;;;;6.47;4.23;;;0.90;99.90;-0.20;97876;;;;584309;242;24046;-82
2022/04/09 01:16:13;;;;;;;6.27;4.77;;;0.80;99.90;-0.30;97874;;;;582437;246;24043;-83
2022/04/09 01:18:41;;;;;;;5.93;4.50;;;0.80;99.90;-0.30;97880;;;;584580;242;24093;-82
2022/04/09 01:21:13;;;;;;;5.70;3.73;;;0.70;99.90;-0.40;97870;;;;578241;247;24115;-82
2022/04/09 01:23:37;;;;;;;6.57;4.30;;;0.70;99.90;-0.50;97875;;;;571302;247;24090;-80
2022/04/09 01:26:08;;;;;;;5.27;4.87;;;0.60;99.90;-0.50;97872;;;;593685;239;24096;-83
2022/04/09 01:28:36;;;;;;;5.23;4.73;;;0.60;99.90;-0.50;97864;;;;573397;247;24099;-83
2022/04/09 01:31:01;;;;;;;7.53;4.43;;;0.50;99.90;-0.60;97869;;;;572666;246;35245;-84
2022/04/09 01:33:29;;;;;;;6.73;3.13;;;0.50;99.90;-0.60;97879;;;;582939;245;25147;-83
2022/04/09 01:35:58;;;;;;;5.20;3.60;;;0.40;99.90;-0.60;97876;;;;588589;242;24106;-88
2022/04/09 01:38:26;;;;;;;7.17;5.00;;;0.40;99.90;-0.70;97875;;;;583159;244;24093;-88
2022/04/09 01:40:57;;;;;;;7.43;4.87;;;0.40;99.90;-0.70;97877;;;;574751;246;24195;-81
2022/04/09 01:43:25;;;;;;;6.80;4.67;;;0.30;99.90;-0.70;97886;;;;592965;241;24058;-87
2022/04/09 01:45:53;;;;;;;7.50;5.03;;;0.30;99.90;-0.70;97874;;;;572504;247;24097;-84
2022/04/09 01:48:21;;;;;;;5.43;4.93;;;0.30;99.90;-0.80;97876;;;;585658;242;24038;-83
2022/04/09 01:50:49;;;;;;;5.97;5.10;;;0.30;99.90;-0.80;97879;;;;585159;242;24107;-87
2022/04/09 01:53:17;;;;;;;8.37;5.67;;;0.20;99.90;-0.80;97867;;;;585488;242;24111;-87
2022/04/09 01:55:46;;;;;;;8.23;5.03;;;0.20;99.90;-0.80;97871;;;;574776;246;24073;-87
2022/04/09 01:58:14;;;;;;;5.67;5.17;;;0.20;99.90;-0.80;97875;;;;583556;246;24154;-87
2022/04/09 02:00:44;;;;;;;6.63;5.77;;;0.20;99.90;-0.80;97883;;;;571943;247;23987;-88
2022/04/09 02:03:09;;;;;;;6.50;5.23;;;0.20;99.90;-0.80;97876;;;;588253;242;24100;-88
2022/04/09 02:05:38;;;;;;;8.40;5.63;;;0.20;99.90;-0.80;97878;;;;585267;242;24044;-88
2022/04/09 02:08:08;;;;;;;6.17;5.57;;;0.20;99.90;-0.80;97868;;;;574099;246;24074;-90
2022/04/09 02:10:37;;;;;;;5.63;5.13;;;0.30;99.90;-0.80;97874;;;;588952;242;24066;-88
2022/04/09 02:13:04;;;;;;;10.20;6.57;;;0.20;99.90;-0.80;97881;;;;578229;244;35100;-88
2022/04/09 02:15:31;;;;;;;4.17;3.60;;;0.20;99.90;-0.90;97878;;;;588725;242;24046;-89
2022/04/09 02:17:59;;;;;;;5.97;5.37;;;0.20;99.90;-0.80;97876;;;;582742;246;24124;-89
2022/04/09 02:20:27;;;;;;;8.80;5.87;;;0.20;99.90;-0.80;97877;;;;588264;242;24048;-88
2022/04/09 02:22:55;;;;;;;10.40;6.97;;;0.30;99.90;-0.80;97878;;;;582939;246;24141;-90
2022/04/09 02:25:23;;;;;;;7.67;6.70;;;0.30;99.90;-0.80;97872;;;;588377;242;24064;-88
2022/04/09 02:27:51;;;;;;;7.13;6.27;;;0.30;99.90;-0.70;97883;;;;582710;246;24067;-88
2022/04/09 02:30:21;;;;;;;7.77;6.97;;;0.40;99.90;-0.70;97883;;;;584510;242;24045;-86
2022/04/09 02:32:50;;;;;;;10.37;8.67;;;0.40;99.90;-0.60;97874;;;;584326;242;24063;-84
2022/04/09 02:35:23;;;;;;;10.47;8.03;;;0.40;99.90;-0.60;97879;;;;584622;242;24060;-89
2022/04/09 02:37:48;;;;;;;9.27;7.63;;;0.50;99.90;-0.60;97874;;;;584396;242;24071;-88
2022/04/09 02:40:16;;;;;;;8.27;7.37;;;0.50;99.90;-0.60;97886;;;;584608;242;24068;-89
2022/04/09 02:42:46;;;;;;;8.33;7.53;;;0.50;99.90;-0.50;97879;;;;584566;242;25079;-89
2022/04/09 02:45:12;;;;;;;12.27;7.50;;;0.50;99.90;-0.50;97875;;;;576467;247;24151;-87
2022/04/09 02:47:44;;;;;;;8.87;7.57;;;0.60;99.90;-0.50;97879;;;;588461;240;24085;-87
2022/04/09 02:50:12;;;;;;;8.77;7.83;;;0.50;99.90;-0.50;97881;;;;593305;240;24103;-86
2022/04/09 02:52:39;;;;;;;10.40;7.53;;;0.60;99.90;-0.40;97878;;;;588274;244;24198;-87
2022/04/09 02:55:05;;;;;;;8.33;7.50;;;0.60;99.90;-0.40;97877;;;;571787;247;24088;-89
2022/04/09 02:57:32;;;;;;;8.60;7.17;;;0.60;99.90;-0.40;97879;;;;589607;240;24072;-82
2022/04/09 03:00:04;;;;;;;8.33;7.43;;;0.70;99.90;-0.30;97881;;;;583826;242;24118;-86
2022/04/09 03:02:29;;;;;;;7.57;6.87;;;0.70;99.90;-0.30;97882;;;;573870;246;24085;-88
2022/04/09 03:04:57;;;;;;;8.67;6.47;;;0.70;99.90;-0.30;97889;;;;583339;246;24134;-84
2022/04/09 03:07:24;;;;;;;7.97;6.43;;;0.80;99.90;-0.30;97893;;;;584934;242;24058;-87
2022/04/09 03:09:53;;;;;;;8.17;6.23;;;0.80;99.90;-0.30;97896;;;;583072;246;24074;-83
2022/04/09 03:12:21;;;;;;;7.70;6.00;;;0.80;99.90;-0.30;97897;;;;584600;242;24040;-83
2022/04/09 03:14:49;;;;;;;7.00;6.30;;;0.80;99.90;-0.20;97902;;;;582770;246;24071;-82
2022/04/09 03:17:21;;;;;;;8.27;6.70;;;0.80;99.90;-0.20;97900;;;;588947;242;24026;-87
2022/04/09 03:19:46;;;;;;;9.37;6.60;;;0.80;99.90;-0.30;97909;;;;583408;244;24096;-89
2022/04/09 03:22:14;;;;;;;8.20;6.83;;;0.80;99.90;-0.20;97905;;;;582165;247;24088;-80
2022/04/09 03:24:42;;;;;;;8.37;7.00;;;0.80;99.90;-0.20;97910;;;;589600;240;24033;-80
2022/04/09 03:27:10;;;;;;;7.70;6.90;;;0.80;99.90;-0.20;97909;;;;585448;242;27299;-80
2022/04/09 03:29:38;;;;;;;9.67;6.40;;;0.80;99.90;-0.10;97910;;;;583228;246;24098;-83
2022/04/09 03:32:09;;;;;;;10.40;6.43;;;0.90;99.90;-0.10;97903;;;;588690;242;24153;-84
2022/04/09 03:34:36;;;;;;;6.57;5.83;;;0.90;99.90;-0.10;97928;;;;584817;242;24077;-86
2022/04/09 03:37:01;;;;;;;7.83;6.93;;;0.90;99.90;0.00;97919;;;;573517;247;24177;-84
2022/04/09 03:39:30;;;;;;;6.43;5.80;;;1.00;99.90;0.10;97923;;;;583110;243;24097;-84
2022/04/09 03:42:01;;;;;;;9.47;4.90;;;1.10;99.90;0.20;97920;;;;578579;245;24058;-83
2022/04/09 03:44:26;;;;;;;7.40;4.77;;;1.20;99.90;0.30;97924;;;;585046;242;24086;-85
2022/04/09 03:47:03;;;;;;;5.70;5.10;;;1.30;99.90;0.30;97932;;;;589418;240;24098;-81
2022/04/09 03:49:30;;;;;;;6.37;5.03;;;1.30;99.90;0.40;97931;;;;585173;242;24084;-81
2022/04/09 03:52:01;;;;;;;9.27;4.63;;;1.40;99.90;0.40;97937;;;;574213;247;24073;-84
2022/04/09 03:54:30;;;;;;;5.50;4.93;;;1.40;99.90;0.40;97930;;;;579180;246;24161;-82
2022/04/09 03:56:56;;;;;;;3.60;3.00;;;1.50;99.90;0.40;97929;;;;589429;242;24070;-82
2022/04/09 03:59:24;;;;;;;5.07;3.20;;;1.50;99.90;0.40;97936;;;;574705;247;24077;-86
2022/04/09 04:01:52;;;;;;;4.17;3.63;;;1.40;99.90;0.40;97941;;;;584174;244;24088;-86
2022/04/09 04:04:21;;;;;;;3.20;2.83;;;1.40;99.90;0.40;97932;;;;590029;241;24043;-88
2022/04/09 04:06:48;;;;;;;3.07;2.77;;;1.40;99.90;0.40;97935;;;;583729;246;24107;-87
2022/04/09 04:09:19;;;;;;;4.67;2.97;;;1.40;99.90;0.40;97929;;;;585481;241;24058;-89
2022/04/09 04:11:47;;;;;;;5.50;2.40;;;1.40;99.90;0.40;97940;;;;578527;244;24094;-89
2022/04/09 04:14:14;;;;;;;3.40;2.33;;;1.40;99.90;0.40;97940;;;;594312;241;24063;-89
2022/04/09 04:16:43;;;;;;;2.60;2.40;;;1.50;99.90;0.50;97945;;;;594279;242;24079;-88
2022/04/09 04:19:10;;;;;;;4.20;3.13;;;1.50;99.90;0.50;97948;;;;589570;240;24054;-86
2022/04/09 04:21:39;;;;;;;6.43;3.70;;;1.50;99.90;0.60;97942;;;;584026;240;45828;-89
2022/04/09 04:24:10;;;;;;;4.62;3.90;;;1.60;99.90;0.70;97940;;;;579928;242;35264;-86
2022/04/09 04:26:34;;;;;;;4.17;2.67;;;1.70;99.90;0.80;97944;;;;584787;242;24070;-85
2022/04/09 04:29:05;;;;;;;4.30;2.40;;;1.70;99.90;0.80;97942;;;;583270;246;24131;-86
2022/04/09 04:31:30;;;;;;;2.50;2.30;;;1.80;99.90;0.90;97946;;;;582732;246;24100;-83
2022/04/09 04:33:58;;;;;;;2.83;2.27;;;1.90;99.90;0.90;97952;;;;583455;246;24080;-82
2022/04/09 04:36:26;;;;;;;2.30;2.20;;;1.90;99.90;1.00;97956;;;;588955;242;24036;-89
2022/04/09 04:38:54;;;;;;;2.50;2.30;;;2.00;99.90;1.10;97964;;;;583090;246;24131;-90
2022/04/09 04:41:22;;;;;;;3.30;2.50;;;2.10;99.90;1.20;97963;;;;588650;242;24068;-85
2022/04/09 04:43:52;;;;;;;2.60;2.40;;;2.20;99.90;1.30;97971;;;;582768;246;24061;-85
2022/04/09 04:46:19;;;;;;;3.97;2.40;;;2.40;99.90;1.40;97976;;;;588146;242;24052;-88
2022/04/09 04:48:49;;;;;;;2.73;2.03;;;2.30;99.90;1.50;97980;;;;577916;246;24091;-87
2022/04/09 04:51:17;;;;;;;6.53;3.67;;;2.50;99.90;1.70;97975;;;;588601;242;24126;-87
2022/04/09 04:53:45;;;;;;;5.37;2.97;;;2.60;99.90;1.80;97985;;;;583026;246;24137;-90
2022/04/09 04:56:13;;;;;;;3.23;2.60;;;2.70;99.90;1.90;97986;;;;588638;242;24092;-90
2022/04/09 04:58:42;;;;;;;4.37;2.80;;;3.00;99.90;2.10;97998;;;;583035;246;24160;-89
2022/04/09 05:01:09;;;;;;;2.70;2.30;;;3.00;99.90;2.40;98003;;;;588606;242;24070;-88
2022/04/09 05:03:39;;;;;;;2.50;2.13;;;3.20;99.90;2.90;97999;;;;582631;246;24146;-89
2022/04/09 05:06:05;;;;;;;3.53;2.37;;;3.70;99.90;3.10;98013;;;;588117;242;24079;-90
2022/04/09 05:08:33;;;;;;;2.50;2.20;;;4.00;99.90;3.30;98006;;;;582410;247;24135;-89
2022/04/09 05:11:04;;;;;;;3.23;2.63;;;4.20;99.90;3.40;98010;;;;587076;244;24059;-89
2022/04/09 05:13:29;;;;;;;5.83;2.40;;;4.30;99.90;3.80;98012;;;;578258;245;24095;-88
2022/04/09 05:15:58;;;;;;;2.90;2.43;;;4.60;99.90;5.00;98015;;;;584035;246;24112;-89
2022/04/09 05:18:25;;;;;;;3.80;1.87;;;5.60;99.90;5.90;98023;;;;589366;241;24060;-89
2022/04/09 05:20:53;;;;;;;3.90;2.63;;;6.50;99.90;6.30;98034;;;;583859;246;24110;-88
2022/04/09 05:23:21;;;;;;;2.43;2.30;;;7.00;99.90;6.90;98035;;;;589370;242;24080;-90
2022/04/09 05:25:49;;;;;;;2.30;2.10;;;8.00;99.90;7.20;98034;;;;583672;246;24061;-89
2022/04/09 05:28:17;;;;;;;4.03;2.47;;;8.00;99.90;7.10;98039;;;;589142;242;24041;-88
2022/04/09 05:30:46;;;;;;;6.10;2.37;;;7.80;99.90;6.70;98039;;;;583667;246;24079;-89
2022/04/09 05:33:14;;;;;;;5.73;2.93;;;7.80;99.90;6.30;98048;;;;585037;242;24082;-88
2022/04/09 05:35:42;;;;;;;2.87;2.53;;;7.40;99.90;5.80;98046;;;;585111;242;24111;-89
2022/04/09 05:38:09;;;;;;;3.10;2.70;;;6.90;99.90;5.70;98067;;;;585007;242;24059;-90
2022/04/09 05:40:37;;;;;;;5.67;2.70;;;6.70;99.90;5.90;98052;;;;585068;242;24096;-88
2022/04/09 05:43:06;;;;;;;3.80;2.70;;;7.00;99.90;6.30;98066;;;;572773;246;24070;-90
2022/04/09 05:45:34;;;;;;;3.20;2.83;;;7.00;99.90;7.10;98078;;;;571893;246;24095;-90
2022/04/09 05:48:05;;;;;;;3.07;2.63;;;7.70;99.90;8.20;98082;;;;583275;246;24080;-87
2022/04/09 05:50:30;;;;;;;2.70;2.50;;;8.60;99.90;9.10;98086;;;;587021;242;24070;-90
2022/04/09 05:52:58;;;;;;;4.90;2.47;;;9.60;99.90;10.30;98095;;;;572175;247;24086;-88
2022/04/09 05:55:26;;;;;;;5.60;2.20;;;11.50;99.90;11.00;98103;;;;588300;240;24041;-89
2022/04/09 05:57:54;;;;;;;3.20;2.67;;;11.50;99.90;11.00;98090;;;;588184;240;24092;-85
2022/04/09 06:00:22;;;;;;;5.60;2.63;;;11.80;99.90;12.30;98104;;;;588624;240;24026;-85
2022/04/09 06:02:50;;;;;;;3.17;2.67;;;12.70;99.90;13.80;98110;;;;588729;240;24035;-86
2022/04/09 06:05:18;;;;;;;3.67;2.27;;;14.10;97.50;14.90;98115;;;;588201;240;24078;-88
2022/04/09 06:07:48;;;;;;;5.37;2.13;;;16.10;81.90;15.60;98121;;;;588353;240;24028;-89
2022/04/09 06:10:15;;;;;;;5.57;1.93;;;16.70;77.80;16.30;98130;;;;588259;240;24045;-87
2022/04/09 06:12:43;;;;;;;3.10;1.87;;;16.70;77.70;17.60;98117;;;;588422;240;25134;-84
2022/04/09 06:15:11;;;;;;;2.70;2.03;;;17.90;71.90;18.50;98130;;;;588246;240;24031;-87
2022/04/09 06:17:39;;;;;;;2.90;1.90;;;19.00;65.50;19.10;98130;;;;588408;240;24008;-90
2022/04/09 06:20:08;;;;;;;4.57;2.07;;;20.40;58.60;19.80;98147;;;;588857;240;24026;-90
2022/04/09 06:22:36;;;;;;;2.37;2.00;;;21.30;56.30;20.80;98142;;;;588760;240;23048;-85
2022/04/09 06:25:09;;;;;;;4.50;2.37;;;22.10;54.30;21.70;98149;;;;589167;238;23050;-86
2022/04/09 06:27:35;;;;;;;5.77;2.17;;;22.00;54.20;22.80;98145;;;;589684;240;24054;-88
2022/04/09 06:30:01;;;;;;;5.57;2.07;;;23.10;51.70;23.30;98161;;;;589931;240;24030;-89
2022/04/09 06:32:29;;;;;;;2.77;2.07;;;23.80;49.40;22.90;98155;;;;589187;240;24045;-89
2022/04/09 06:34:58;;;;;;;3.17;2.00;;;24.00;48.50;23.40;98156;;;;589504;240;24029;-89
2022/04/09 06:37:26;;;;;;;3.50;1.87;;;24.80;46.60;24.40;98168;;;;589384;240;24080;-90
2022/04/09 06:39:55;;;;;;;5.93;2.00;;;24.80;46.50;23.80;98163;;;;589296;240;24061;-89
2022/04/09 06:42:22;;;;;;;2.87;2.30;;;24.70;45.20;23.20;98174;;;;589396;240;24026;-88
2022/04/09 06:44:50;;;;;;;2.87;1.97;;;24.20;45.70;22.60;98170;;;;589085;240;24032;-90
2022/04/09 06:47:18;;;;;;;6.33;2.43;;;23.60;46.80;21.10;98174;;;;589057;240;24085;-88
2022/04/09 06:49:47;;;;;;;5.13;2.40;;;20.90;49.00;19.00;98173;;;;588832;240;24027;-89
2022/04/09 06:52:16;;;;;;;3.50;1.90;;;19.10;52.00;17.20;98176;;;;588696;240;24068;-89
2022/04/09 06:54:43;;;;;;;1.77;1.57;;;19.00;51.90;15.50;98173;;;;589005;240;24023;-86
2022/04/09 06:57:11;;;;;;;3.83;2.03;;;17.30;54.60;16.10;98176;;;;589103;240;24011;-86
2022/04/09 06:59:39;;;;;;;4.93;1.70;;;16.80;56.90;18.30;98179;;;;589589;240;24112;-86
2022/04/09 07:02:08;;;;;;;7.90;2.10;;;20.10;52.00;20.30;98183;;;;589273;240;24103;-89
2022/04/09 07:04:36;;;;;;;4.50;2.33;;;20.00;51.90;22.10;98191;;;;589684;240;23035;-87
2022/04/09 07:07:04;;;;;;;4.63;2.10;;;21.90;49.50;22.90;98190;;;;589909;240;24019;-87
2022/04/09 07:09:32;;;;;;;4.50;2.03;;;23.00;47.70;24.70;98201;;;;589803;240;24088;-83
2022/04/09 07:12:00;;;;;;;2.97;1.93;;;25.70;42.80;25.40;98203;;;;589797;240;24011;-87
2022/04/09 07:14:28;;;;;;;4.67;2.20;;;25.60;42.70;26.10;98204;;;;589920;240;24038;-88
2022/04/09 07:17:00;;;;;;;7.00;2.57;;;26.40;42.50;26.70;98204;;;;590290;240;23009;-87
2022/04/09 07:19:26;;;;;;;5.67;2.00;;;27.20;40.10;26.90;98216;;;;590153;240;23072;-87
2022/04/09 07:21:54;;;;;;;3.77;2.07;;;27.40;39.60;27.00;98232;;;;589574;240;23126;-87
2022/04/09 07:24:22;;;;;;;3.30;1.70;;;27.60;39.10;25.20;98231;;;;589877;240;23045;-87
2022/04/09 07:26:53;;;;;;;3.83;1.80;;;26.60;38.50;22.50;98226;;;;589828;240;23048;-88
2022/04/09 07:29:18;;;;;;;4.67;2.10;;;24.50;40.40;21.10;98223;;;;598690;240;23058;-90
2022/04/09 07:31:49;;;;;;;3.87;1.90;;;22.80;43.30;22.20;98236;;;;589704;240;24064;-87
2022/04/09 07:34:16;;;;;;;4.43;2.13;;;22.80;44.80;22.30;98230;;;;589734;240;23039;-87
2022/04/09 07:36:42;;;;;;;3.37;1.60;;;23.00;44.10;22.60;98232;;;;582782;239;24034;-88
2022/04/09 07:39:10;;;;;;;5.75;2.05;;;22.90;44.10;23.40;98245;;;;585233;240;35013;-87
2022/04/09 07:41:40;;;;;;;4.53;2.00;;;23.70;42.50;21.90;98243;;;;589960;240;24043;-86
2022/04/09 07:44:08;;;;;;;4.40;2.13;;;22.30;43.60;21.10;98237;;;;589674;240;24074;-89
2022/04/09 07:46:39;;;;;;;2.83;1.93;;;22.30;43.60;20.70;98244;;;;589792;240;24057;-88
2022/04/09 07:49:04;;;;;;;4.07;1.87;;;21.60;44.60;21.00;98247;;;;589186;240;23128;-85
2022/04/09 07:51:32;;;;;;;6.87;1.87;;;21.50;45.00;20.50;98256;;;;589645;240;24017;-84
2022/04/09 07:54:00;;;;;;;3.87;1.67;;;21.20;45.10;20.80;98258;;;;589674;240;24032;-87
2022/04/09 07:56:28;;;;;;;2.00;1.73;;;21.40;44.50;20.60;98262;;;;589582;240;24027;-83
2022/04/09 07:58:56;;;;;;;5.07;2.13;;;21.70;44.80;21.50;98270;;;;589325;240;24055;-82
2022/04/09 08:01:24;;;;;;;3.47;1.50;;;21.70;44.80;23.00;98283;;;;589301;240;24023;-84
2022/04/09 08:03:56;;;;;;;2.43;1.40;;;22.90;43.20;25.00;98286;;;;590373;240;22998;-88
2022/04/09 08:06:21;;;;;;;3.93;1.63;;;24.80;41.60;26.40;98291;;;;593069;240;23988;-86
2022/04/09 08:08:49;;;;;;;3.00;1.33;;;26.40;39.20;27.30;98299;;;;590745;240;23979;-89
2022/04/09 08:11:17;;;;;;;5.10;1.60;;;27.60;37.90;25.90;98296;;;;590495;240;24064;-87
2022/04/09 08:13:45;;;;;;;3.97;1.87;;;27.10;37.30;25.60;98305;;;;590069;240;23038;-87
2022/04/09 08:16:15;;;;;;;4.43;1.77;;;26.40;38.30;26.90;98316;;;;589608;240;24092;-86
2022/04/09 08:18:43;;;;;;;3.80;1.63;;;27.20;37.60;27.80;98304;;;;589595;240;23009;-88
2022/04/09 08:21:11;;;;;;;2.80;1.80;;;28.30;36.40;28.50;98315;;;;589562;240;23054;-82
2022/04/09 08:23:39;;;;;;;4.53;1.83;;;29.00;35.70;29.60;98330;;;;589884;240;24056;-82
2022/04/09 08:26:07;;;;;;;4.87;2.23;;;30.00;35.30;29.90;98341;;;;589848;240;23159;-83
2022/04/09 08:28:36;;;;;;;7.28;2.70;;;30.60;34.00;29.90;98343;;;;590110;240;23001;-90
2022/04/09 08:31:06;;;;;;;3.75;2.53;;;30.80;34.10;29.70;98348;;;;589854;240;23044;-88
2022/04/09 08:33:31;;;;;;;3.70;2.50;;;30.80;33.40;29.00;98348;;;;589290;240;23043;-88
2022/04/09 08:36:02;;;;;;;5.55;2.30;;;30.30;33.00;29.40;98360;;;;589516;240;23022;-87
2022/04/09 08:38:31;;;;;;;3.35;1.85;;;29.60;32.50;28.10;98356;;;;588569;240;23073;-90
2022/04/09 08:41:00;;;;;;;2.55;1.73;;;28.00;34.00;26.30;98352;;;;589331;240;23034;-89
2022/04/09 08:43:25;;;;;;;5.87;1.63;;;27.90;33.80;26.60;98368;;;;588657;240;23069;-88
2022/04/09 08:45:53;;;;;;;3.10;1.40;;;27.60;34.80;26.60;98374;;;;588664;240;23060;-89
2022/04/09 08:48:20;;;;;;;3.03;1.47;;;27.60;34.30;25.60;98370;;;;598305;238;24032;-84
2022/04/09 08:50:49;;;;;;;2.60;1.80;;;25.80;35.40;24.20;98379;;;;589711;240;23040;-88
2022/04/09 08:53:17;;;;;;;5.23;1.80;;;25.70;35.30;24.60;98373;;;;590268;240;23098;-88
2022/04/09 08:55:46;;;;;;;5.03;1.60;;;25.40;38.10;26.40;98377;;;;590226;240;23027;-88
2022/04/09 08:58:16;;;;;;;3.43;1.60;;;26.70;37.10;27.60;98375;;;;590013;240;23128;-88
2022/04/09 09:00:42;;;;;;;1.70;1.40;;;27.90;35.60;28.80;98378;;;;583469;240;23115;-88
2022/04/09 09:03:10;;;;;;;4.20;2.00;;;29.30;34.80;28.40;98392;;;;590170;240;23052;-90
2022/04/09 09:05:41;;;;;;;3.30;1.50;;;29.70;32.80;25.90;98385;;;;589555;240;23142;-89
2022/04/09 09:08:13;;;;;;;5.07;2.13;;;26.10;35.10;23.90;98379;;;;588935;240;24068;-89
2022/04/09 09:10:37;;;;;;;3.03;1.37;;;26.00;35.00;23.30;98384;;;;588447;240;24147;-87
2022/04/09 09:13:08;;;;;;;5.33;1.77;;;24.80;36.80;24.40;98389;;;;588861;240;23051;-86
2022/04/09 09:15:52;;;;;;;10.00;3.63;;;25.20;37.00;24.40;98401;;;;588964;240;24064;-86
2022/04/09 09:18:26;;;;;;;4.43;1.53;;;25.20;36.70;23.40;98389;;;;583225;240;24019;-88
2022/04/09 09:20:58;;;;;;;2.53;1.60;;;24.70;36.50;21.90;98394;;;;592003;240;23071;-90
2022/04/09 09:23:30;;;;;;;2.03;1.70;;;23.50;38.10;22.00;98391;;;;589555;240;24104;-88
2022/04/09 09:25:59;;;;;;;3.87;1.60;;;23.30;39.60;22.40;98396;;;;589465;240;24070;-89
2022/04/09 09:28:33;;;;;;;3.67;1.80;;;23.20;39.50;22.80;98394;;;;589408;240;24060;-87
2022/04/09 09:31:01;;;;;;;2.60;1.67;;;23.60;39.50;22.60;98406;;;;589513;240;24053;-86
2022/04/09 09:33:29;;;;;;;2.63;1.60;;;23.40;39.80;23.10;98405;;;;589344;240;24108;-88
2022/04/09 09:35:59;;;;;;;3.20;1.80;;;24.00;39.00;23.10;98399;;;;589499;240;24095;-88
2022/04/09 09:38:30;;;;;;;4.13;1.93;;;24.10;39.40;24.20;98412;;;;589466;240;24105;-85
2022/04/09 09:41:02;;;;;;;3.67;1.70;;;24.90;39.50;24.40;98414;;;;588621;240;24081;-89
2022/04/09 09:43:30;;;;;;;3.60;2.27;;;25.50;38.30;23.40;98418;;;;588998;240;24020;-88
2022/04/09 09:46:02;;;;;;;5.53;1.80;;;24.90;38.30;21.40;98421;;;;589143;240;24089;-89
2022/04/09 09:48:35;;;;;;;4.93;2.00;;;23.50;40.00;19.80;98429;;;;589311;240;24072;-87
2022/04/09 09:51:00;;;;;;;4.87;1.60;;;20.40;44.10;18.70;98437;;;;597689;240;23053;-89
2022/04/09 09:53:33;;;;;;;2.23;1.60;;;20.30;44.00;17.80;98441;;;;597810;240;24051;-89
2022/04/09 09:56:08;;;;;;;3.77;1.60;;;19.30;45.80;16.80;98453;;;;588915;240;24039;-86
2022/04/09 09:58:37;;;;;;;5.55;1.80;;;18.10;47.60;15.50;98474;;;;583322;240;34976;-87
2022/04/09 10:01:08;;;;;;;3.33;1.53;;;16.80;51.10;14.30;98485;;;;589622;240;24080;-85
2022/04/09 10:03:32;;;;;;;4.07;1.47;;;15.60;58.60;13.10;98496;;;;589537;240;24026;-87
2022/04/09 10:06:00;;;;;;;4.40;1.60;;;14.40;64.60;11.20;98535;;;;584176;240;45911;-85
2022/04/09 10:08:28;;;;;;;1.67;1.27;;;12.90;70.90;8.20;98513;;;;589706;240;24091;-84
2022/04/09 10:11:01;;;;;;;2.93;1.63;;;10.70;74.70;6.10;98518;;;;589908;240;24137;-86
2022/04/09 10:13:30;;;;;;;1.20;1.10;;;8.60;82.70;4.90;98513;;;;599766;239;24070;-81
2022/04/09 10:15:55;;;;;;;1.40;0.87;;;7.10;93.20;4.40;98476;;;;586357;242;24106;-84
2022/04/09 10:18:26;;;;;;;0.90;0.90;;;6.10;99.90;4.40;98472;;;;584497;246;24081;-84
2022/04/09 10:20:56;;;;;;;3.20;1.80;;;5.70;99.90;4.70;98473;;;;584396;246;24096;-86
2022/04/09 10:23:24;;;;;;;1.70;1.60;;;5.70;99.90;5.20;98473;;;;582622;242;24064;-84
2022/04/09 10:25:55;;;;;;;5.20;2.70;;;6.10;99.90;5.60;98484;;;;585179;242;24142;-82
2022/04/09 10:28:33;;;;;;;2.23;1.93;;;6.40;99.90;5.70;98484;;;;584363;242;24076;-82
2022/04/09 10:31:04;;;;;;;3.97;2.37;;;6.50;99.90;6.00;98484;;;;584140;242;24075;-83
2022/04/09 10:33:29;;;;;;;5.23;2.30;;;6.70;99.90;6.20;98502;;;;588623;242;24078;-85
2022/04/09 10:36:02;;;;;;;3.53;1.67;;;6.90;99.90;6.20;98496;;;;584749;242;24163;-83
2022/04/09 10:38:24;;;;;;;5.00;1.93;;;7.00;99.90;6.40;98500;;;;583324;242;24141;-83
2022/04/09 10:40:58;;;;;;;3.23;1.90;;;7.10;99.90;6.50;98497;;;;584933;242;24056;-88
2022/04/09 10:43:26;;;;;;;3.23;1.80;;;7.20;99.90;6.90;98507;;;;588034;242;24105;-89
2022/04/09 10:46:27;;;;;;;3.47;2.30;;;7.60;99.90;7.00;98492;;;;587727;242;24063;-85
2022/04/09 10:48:34;;;;;;;10.23;2.10;;;7.70;99.90;6.80;98501;;;;589173;241;24103;-88
2022/04/09 10:51:08;;;;;;;4.27;1.67;;;7.70;99.90;6.90;98485;;;;593126;242;24078;-83
2022/04/09 10:53:38;;;;;;;4.30;2.13;;;7.50;99.90;6.70;98491;;;;588675;242;24061;-85
2022/04/09 10:56:33;;;;;;;3.47;1.93;;;7.50;99.90;6.60;98495;;;;593322;242;24070;-87
2022/04/09 10:59:16;;;;;;;5.47;2.57;;;7.30;99.90;6.40;98489;;;;579843;242;35112;-88
2022/04/09 11:01:47;;;;;;;6.93;2.70;;;7.20;99.90;6.30;98501;;;;582591;242;35086;-90
2022/04/09 11:04:30;;;;;;;6.97;2.20;;;7.10;99.90;6.20;98498;;;;587617;242;24101;-90
2022/04/09 11:07:12;;;;;;;8.30;2.43;;;7.00;99.90;6.10;98495;;;;587923;242;24107;-88
2022/04/09 11:10:01;;;;;;;13.43;2.10;;;7.00;99.90;6.20;98500;;;;584438;242;24115;-87
2022/04/09 11:12:30;;;;;;;6.20;2.53;;;7.10;99.90;6.30;98501;;;;585331;241;24094;-85
2022/04/09 11:15:01;;;;;;;5.13;2.33;;;7.10;99.90;6.20;98488;;;;582962;241;24091;-84
2022/04/09 11:17:37;;;;;;;5.20;2.07;;;7.10;99.90;6.10;98491;;;;594481;238;24057;-84
2022/04/09 11:20:05;;;;;;;6.20;1.80;;;7.10;99.90;5.90;98496;;;;594263;241;24063;-83
2022/04/09 11:22:42;;;;;;;4.03;2.10;;;7.00;99.90;5.90;98497;;;;584534;242;24069;-84
2022/04/09 11:25:22;;;;;;;2.03;1.67;;;7.00;99.90;5.90;98495;;;;584993;242;24061;-84
2022/04/09 11:27:46;;;;;;;3.50;1.87;;;7.00;99.90;6.10;98488;;;;584981;242;24086;-83
2022/04/09 11:30:15;;;;;;;3.37;1.53;;;7.10;99.90;6.10;98514;;;;594239;242;24043;-83
2022/04/09 11:32:43;;;;;;;14.20;1.90;;;7.10;99.90;6.20;98510;;;;585140;242;24053;-84